Time;durP1;ratioP1;P1;durP2;ratioP2;P2;SDS_P1;SDS_P2;PMS_P1;PMS_P2;Temp;Humidity;BMP_temperature;BMP_pressure;BME280_temperature;BME280_humidity;BME280_pressure;Samples;Min_cycle;Max_cycle;Signal;HPM_P1;HPM_P2
2023/01/24 00:00:08;;;;;;;16.65;11.85;;;;;;;;;;5133615;28;20199;-64
2023/01/24 00:02:37;;;;;;;18.90;13.13;;;;;;;;;;5134180;28;20213;-64
2023/01/24 00:05:04;;;;;;;16.10;11.02;;;;;;;;;;5134302;28;20205;-63
2023/01/24 00:07:32;;;;;;;18.98;11.65;;;;;;;;;;5133618;28;20198;-63
2023/01/24 00:09:59;;;;;;;18.80;11.75;;;;;;;;;;5133707;28;20202;-64
2023/01/24 00:12:26;;;;;;;16.92;11.55;;;;;;;;;;5136062;27;20224;-64
2023/01/24 00:14:53;;;;;;;16.30;11.30;;;;;;;;;;5138015;27;20222;-63
2023/01/24 00:17:21;;;;;;;14.95;10.85;;;;;;;;;;5137939;27;20536;-63
2023/01/24 00:19:50;;;;;;;14.65;10.52;;;;;;;;;;5137976;27;20195;-64
2023/01/24 00:22:18;;;;;;;16.70;12.30;;;;;;;;;;5137544;27;20573;-64
2023/01/24 00:24:45;;;;;;;14.57;10.93;;;;;;;;;;5137600;27;20204;-63
2023/01/24 00:27:13;;;;;;;14.45;11.30;;;;;;;;;;5136966;27;20195;-64
2023/01/24 00:29:40;;;;;;;16.67;11.38;;;;;;;;;;5137047;27;20204;-63
2023/01/24 00:32:07;;;;;;;17.48;10.60;;;;;;;;;;5137154;27;20198;-68
2023/01/24 00:34:34;;;;;;;15.93;11.20;;;;;;;;;;5137479;27;20223;-64
2023/01/24 00:37:03;;;;;;;16.77;10.93;;;;;;;;;;5137427;27;20191;-65
2023/01/24 00:39:30;;;;;;;15.90;11.90;;;;;;;;;;5137384;27;20278;-65
2023/01/24 00:41:57;;;;;;;15.50;10.77;;;;;;;;;;5137324;27;20199;-65
2023/01/24 00:44:24;;;;;;;19.85;12.23;;;;;;;;;;5137153;27;20202;-66
2023/01/24 00:46:52;;;;;;;17.00;11.65;;;;;;;;;;5137667;27;20234;-66
2023/01/24 00:49:19;;;;;;;18.77;12.48;;;;;;;;;;5137122;27;20278;-65
2023/01/24 00:51:46;;;;;;;16.13;11.50;;;;;;;;;;5137022;27;20286;-65
2023/01/24 00:54:15;;;;;;;16.20;12.55;;;;;;;;;;5136952;27;20194;-65
2023/01/24 00:56:42;;;;;;;15.80;11.23;;;;;;;;;;5137001;27;20227;-65
2023/01/24 00:59:09;;;;;;;12.88;10.25;;;;;;;;;;5136619;27;20199;-65
2023/01/24 01:01:36;;;;;;;13.18;10.05;;;;;;;;;;5136655;27;20207;-65
2023/01/24 01:04:04;;;;;;;13.75;10.82;;;;;;;;;;5136503;27;20201;-65
2023/01/24 01:06:31;;;;;;;12.95;8.93;;;;;;;;;;5137062;27;20536;-65
2023/01/24 01:08:58;;;;;;;14.05;10.40;;;;;;;;;;5136939;27;20193;-65
2023/01/24 01:11:27;;;;;;;13.35;10.15;;;;;;;;;;5136757;27;20194;-65
2023/01/24 01:13:55;;;;;;;21.42;11.18;;;;;;;;;;5136312;27;20193;-65
2023/01/24 01:16:22;;;;;;;16.40;11.43;;;;;;;;;;5136684;27;20215;-65
2023/01/24 01:18:50;;;;;;;19.95;12.65;;;;;;;;;;5136647;27;20199;-65
2023/01/24 01:21:19;;;;;;;21.65;12.63;;;;;;;;;;5136604;27;20220;-66
2023/01/24 01:23:46;;;;;;;16.70;11.70;;;;;;;;;;5135884;27;20196;-65
2023/01/24 01:26:16;;;;;;;16.77;12.57;;;;;;;;;;5136499;27;20199;-65
2023/01/24 01:28:45;;;;;;;16.98;10.60;;;;;;;;;;5136895;27;20199;-65
2023/01/24 01:31:12;;;;;;;19.27;12.27;;;;;;;;;;5135971;27;20709;-65
2023/01/24 01:33:40;;;;;;;19.30;12.63;;;;;;;;;;5136592;27;20189;-65
2023/01/24 01:36:07;;;;;;;17.58;11.93;;;;;;;;;;5135870;27;20679;-65
2023/01/24 01:38:34;;;;;;;17.83;12.63;;;;;;;;;;5136379;27;20194;-65
2023/01/24 01:41:01;;;;;;;18.85;13.13;;;;;;;;;;5136447;27;20190;-65
2023/01/24 01:43:30;;;;;;;19.10;12.60;;;;;;;;;;5136065;27;20202;-65
2023/01/24 01:46:02;;;;;;;19.05;12.55;;;;;;;;;;5135757;27;20682;-65
2023/01/24 01:48:35;;;;;;;18.40;12.73;;;;;;;;;;5135694;27;20190;-65
2023/01/24 01:51:04;;;;;;;17.25;12.50;;;;;;;;;;5136332;27;20184;-65
2023/01/24 01:53:33;;;;;;;17.98;10.77;;;;;;;;;;5135878;27;20194;-65
2023/01/24 01:56:02;;;;;;;18.25;12.60;;;;;;;;;;5135384;27;20222;-65
2023/01/24 01:58:29;;;;;;;18.83;12.40;;;;;;;;;;5135518;27;20215;-65
2023/01/24 02:00:57;;;;;;;18.33;12.20;;;;;;;;;;5135608;27;20674;-65
2023/01/24 02:03:38;;;;;;;17.73;11.80;;;;;;;;;;5135375;27;20647;-65
2023/01/24 02:06:06;;;;;;;16.05;12.45;;;;;;;;;;5135423;27;20197;-65
2023/01/24 02:08:33;;;;;;;17.85;12.30;;;;;;;;;;5135191;27;20198;-65
2023/01/24 02:13:47;;;;;;;17.67;12.77;;;;;;;;;;5135329;27;20643;-65
2023/01/24 02:16:14;;;;;;;17.60;12.60;;;;;;;;;;5135413;27;20218;-64
2023/01/24 02:18:43;;;;;;;17.85;11.73;;;;;;;;;;5135371;27;20678;-65
2023/01/24 02:21:12;;;;;;;17.88;12.43;;;;;;;;;;5135410;27;20197;-65
2023/01/24 02:23:47;;;;;;;20.25;14.07;;;;;;;;;;5135260;27;20200;-65
2023/01/24 02:26:16;;;;;;;18.33;12.10;;;;;;;;;;5135175;27;20191;-65
2023/01/24 02:28:45;;;;;;;13.95;10.23;;;;;;;;;;5135901;27;20190;-66
2023/01/24 02:31:12;;;;;;;22.70;13.82;;;;;;;;;;5134915;27;20655;-65
2023/01/24 02:33:39;;;;;;;15.68;11.38;;;;;;;;;;5135192;27;20198;-66
2023/01/24 02:36:19;;;;;;;20.30;12.05;;;;;;;;;;5133811;27;20218;-65
2023/01/24 02:38:47;;;;;;;17.60;12.25;;;;;;;;;;5135339;27;20189;-66
2023/01/24 02:41:18;;;;;;;16.40;11.82;;;;;;;;;;5135384;27;20276;-65
2023/01/24 02:43:47;;;;;;;14.50;9.95;;;;;;;;;;5135137;27;20183;-65
2023/01/24 02:46:14;;;;;;;22.48;11.10;;;;;;;;;;5134939;27;20206;-65
2023/01/24 02:48:42;;;;;;;15.73;11.98;;;;;;;;;;5134601;27;20202;-65
2023/01/24 02:53:53;;;;;;;19.08;12.68;;;;;;;;;;5134722;27;20173;-65
2023/01/24 02:59:07;;;;;;;19.60;13.18;;;;;;;;;;5134574;27;20205;-66
2023/01/24 03:01:34;;;;;;;16.70;11.80;;;;;;;;;;5134612;27;20203;-65
2023/01/24 03:04:01;;;;;;;19.20;12.15;;;;;;;;;;5134609;27;20193;-65
2023/01/24 03:06:29;;;;;;;15.98;11.15;;;;;;;;;;5134389;27;20199;-65
2023/01/24 03:08:56;;;;;;;16.63;11.23;;;;;;;;;;5135038;27;20190;-65
2023/01/24 03:11:24;;;;;;;19.20;12.45;;;;;;;;;;5134530;27;20197;-65
2023/01/24 03:35:54;;;;;;;16.27;10.50;;;;;;;;;;5134084;28;20251;-65
2023/01/24 03:41:07;;;;;;;15.93;10.82;;;;;;;;;;5134235;28;20689;-65
2023/01/24 03:43:35;;;;;;;15.27;11.20;;;;;;;;;;5134280;28;20202;-65
2023/01/24 03:46:02;;;;;;;14.32;10.20;;;;;;;;;;5133847;28;20202;-65
2023/01/24 03:48:34;;;;;;;14.77;10.63;;;;;;;;;;5138052;27;20194;-65
2023/01/24 03:53:46;;;;;;;12.32;9.98;;;;;;;;;;5138138;27;20653;-65
2023/01/24 03:56:13;;;;;;;14.60;9.20;;;;;;;;;;5137924;27;20243;-65
2023/01/24 03:58:42;;;;;;;15.77;10.93;;;;;;;;;;5137936;27;20195;-65
2023/01/24 04:01:09;;;;;;;15.80;10.25;;;;;;;;;;5138474;27;20201;-65
2023/01/24 04:03:36;;;;;;;16.60;11.10;;;;;;;;;;5138107;27;20199;-66
2023/01/24 04:06:03;;;;;;;15.75;11.43;;;;;;;;;;5137694;27;20199;-65
2023/01/24 04:08:31;;;;;;;14.82;10.15;;;;;;;;;;5137978;27;20199;-66
2023/01/24 04:10:58;;;;;;;14.45;9.30;;;;;;;;;;5138082;27;20195;-65
2023/01/24 04:13:25;;;;;;;13.15;9.48;;;;;;;;;;5138050;27;20203;-65
2023/01/24 04:15:54;;;;;;;14.98;10.60;;;;;;;;;;5137739;27;20218;-65
2023/01/24 04:18:21;;;;;;;16.70;11.38;;;;;;;;;;5137409;27;20207;-65
2023/01/24 04:20:48;;;;;;;13.00;10.13;;;;;;;;;;5137580;27;20286;-66
2023/01/24 04:23:15;;;;;;;15.63;10.60;;;;;;;;;;5137728;27;20192;-65
2023/01/24 04:25:43;;;;;;;17.63;12.15;;;;;;;;;;5137150;27;20189;-65
2023/01/24 04:28:10;;;;;;;13.88;10.25;;;;;;;;;;5137257;27;20307;-65
2023/01/24 04:30:37;;;;;;;16.63;10.82;;;;;;;;;;5137098;27;20209;-65
2023/01/24 04:33:05;;;;;;;11.77;9.25;;;;;;;;;;5137679;27;20585;-65
2023/01/24 04:35:33;;;;;;;13.18;9.68;;;;;;;;;;5137206;27;20216;-65
2023/01/24 04:38:00;;;;;;;11.52;9.77;;;;;;;;;;5137676;27;20196;-65
2023/01/24 04:40:28;;;;;;;14.35;10.43;;;;;;;;;;5137517;27;20203;-65
2023/01/24 04:42:57;;;;;;;13.23;10.20;;;;;;;;;;5137388;27;20198;-66
2023/01/24 04:45:24;;;;;;;16.05;10.70;;;;;;;;;;5136971;27;20252;-65
2023/01/24 04:47:51;;;;;;;11.48;9.65;;;;;;;;;;5137244;27;20196;-65
2023/01/24 04:50:20;;;;;;;13.65;10.05;;;;;;;;;;5137362;27;20200;-65
2023/01/24 04:52:47;;;;;;;16.23;11.15;;;;;;;;;;5137061;27;20195;-66
2023/01/24 04:55:14;;;;;;;15.48;10.60;;;;;;;;;;5135725;27;20199;-65
2023/01/24 04:57:42;;;;;;;14.93;10.18;;;;;;;;;;5136313;27;20237;-63
2023/01/24 05:00:10;;;;;;;13.02;9.82;;;;;;;;;;5135900;27;20647;-64
2023/01/24 05:02:38;;;;;;;13.05;9.40;;;;;;;;;;5136768;27;20195;-65
2023/01/24 05:05:05;;;;;;;13.85;9.25;;;;;;;;;;5136816;27;20194;-64
2023/01/24 05:07:34;;;;;;;14.05;9.32;;;;;;;;;;5136282;27;20205;-66
2023/01/24 05:10:01;;;;;;;14.25;9.75;;;;;;;;;;5136709;27;20196;-67
2023/01/24 05:12:28;;;;;;;13.70;10.57;;;;;;;;;;5136718;27;20199;-63
2023/01/24 05:14:55;;;;;;;12.25;9.45;;;;;;;;;;5136474;27;20197;-63
2023/01/24 05:17:22;;;;;;;13.85;8.98;;;;;;;;;;5135918;27;20223;-64
2023/01/24 05:19:50;;;;;;;13.70;10.38;;;;;;;;;;5136432;27;20195;-63
2023/01/24 05:22:17;;;;;;;13.77;9.77;;;;;;;;;;5136183;27;20204;-63
2023/01/24 05:24:45;;;;;;;15.30;10.43;;;;;;;;;;5136236;27;20192;-64
2023/01/24 05:27:12;;;;;;;13.90;10.48;;;;;;;;;;5135880;27;20205;-63
2023/01/24 05:29:40;;;;;;;13.68;9.27;;;;;;;;;;5136214;27;20195;-63
2023/01/24 05:32:07;;;;;;;13.95;8.95;;;;;;;;;;5135737;27;20291;-63
2023/01/24 05:34:34;;;;;;;14.02;9.82;;;;;;;;;;5135836;27;20677;-63
2023/01/24 05:37:01;;;;;;;13.60;9.30;;;;;;;;;;5135990;27;20583;-65
2023/01/24 05:39:28;;;;;;;12.55;9.73;;;;;;;;;;5135987;27;20193;-64
2023/01/24 05:41:57;;;;;;;14.55;9.45;;;;;;;;;;5136015;27;20191;-64
2023/01/24 05:44:24;;;;;;;17.20;10.23;;;;;;;;;;5135973;27;20285;-64
2023/01/24 05:46:51;;;;;;;14.25;9.40;;;;;;;;;;5136158;27;20205;-64
2023/01/24 05:49:18;;;;;;;13.15;9.90;;;;;;;;;;5135473;27;20198;-65
2023/01/24 05:51:45;;;;;;;10.88;9.30;;;;;;;;;;5135439;27;20677;-64
2023/01/24 05:54:13;;;;;;;12.15;9.90;;;;;;;;;;5135816;27;20196;-64
2023/01/24 05:56:40;;;;;;;14.50;9.88;;;;;;;;;;5135458;27;20237;-64
2023/01/24 05:59:10;;;;;;;12.07;9.90;;;;;;;;;;5135936;27;20189;-64
2023/01/24 06:01:37;;;;;;;15.45;10.88;;;;;;;;;;5136339;27;20550;-64
2023/01/24 06:04:04;;;;;;;14.40;9.73;;;;;;;;;;5135806;27;20559;-64
2023/01/24 06:06:32;;;;;;;11.63;9.65;;;;;;;;;;5135426;27;20195;-64
2023/01/24 06:08:59;;;;;;;10.95;9.15;;;;;;;;;;5135745;27;20280;-66
2023/01/24 06:11:28;;;;;;;15.05;10.20;;;;;;;;;;5135482;27;20194;-63
2023/01/24 06:13:55;;;;;;;12.35;9.98;;;;;;;;;;5135498;27;20543;-63
2023/01/24 06:16:25;;;;;;;12.10;9.50;;;;;;;;;;5135108;27;20214;-63
2023/01/24 06:18:52;;;;;;;11.93;9.80;;;;;;;;;;5135116;27;20201;-63
2023/01/24 06:21:25;;;;;;;15.20;9.75;;;;;;;;;;5135212;27;20652;-63
2023/01/24 06:23:53;;;;;;;15.88;10.18;;;;;;;;;;5135446;27;20179;-63
2023/01/24 06:26:20;;;;;;;11.35;9.68;;;;;;;;;;5135362;27;20529;-63
2023/01/24 06:28:48;;;;;;;15.43;10.45;;;;;;;;;;5134838;27;20206;-63
2023/01/24 06:31:20;;;;;;;15.20;10.43;;;;;;;;;;5134917;27;20664;-64
2023/01/24 06:33:53;;;;;;;15.05;10.13;;;;;;;;;;5135217;27;20186;-64
2023/01/24 06:36:39;;;;;;;13.55;10.45;;;;;;;;;;5135632;27;20302;-64
2023/01/24 06:39:09;;;;;;;14.63;10.55;;;;;;;;;;5135078;27;20283;-64
2023/01/24 06:41:37;;;;;;;15.15;10.77;;;;;;;;;;5135326;27;20212;-64
2023/01/24 06:44:04;;;;;;;17.50;11.73;;;;;;;;;;5134935;27;20199;-64
2023/01/24 06:46:32;;;;;;;15.43;11.32;;;;;;;;;;5134655;27;20201;-64
2023/01/24 06:49:00;;;;;;;14.48;10.05;;;;;;;;;;5134561;27;20276;-64
2023/01/24 06:51:27;;;;;;;15.65;10.55;;;;;;;;;;5135621;27;20208;-64
2023/01/24 06:53:55;;;;;;;15.65;11.60;;;;;;;;;;5134910;27;20196;-65
2023/01/24 06:56:22;;;;;;;17.63;11.40;;;;;;;;;;5134775;27;20223;-63
2023/01/24 06:58:49;;;;;;;15.68;10.82;;;;;;;;;;5134970;27;20193;-63
2023/01/24 07:01:16;;;;;;;16.05;11.23;;;;;;;;;;5134484;27;20651;-64
2023/01/24 07:03:43;;;;;;;20.63;11.18;;;;;;;;;;5134671;27;20194;-64
2023/01/24 07:06:12;;;;;;;15.82;11.75;;;;;;;;;;5134357;27;20284;-63
2023/01/24 07:08:40;;;;;;;18.40;10.20;;;;;;;;;;5134791;27;20222;-63
2023/01/24 07:11:07;;;;;;;13.63;10.65;;;;;;;;;;5134532;27;20196;-63
2023/01/24 07:13:34;;;;;;;17.05;12.25;;;;;;;;;;5134590;27;20195;-63
2023/01/24 07:16:02;;;;;;;19.23;12.77;;;;;;;;;;5134986;27;20194;-63
2023/01/24 07:18:29;;;;;;;16.90;12.05;;;;;;;;;;5134248;27;20214;-63
2023/01/24 07:20:57;;;;;;;18.02;11.18;;;;;;;;;;5134195;27;20199;-64
2023/01/24 07:23:28;;;;;;;16.25;10.40;;;;;;;;;;5133992;28;20195;-64
2023/01/24 07:25:55;;;;;;;17.40;10.70;;;;;;;;;;5134170;28;20648;-65
2023/01/24 07:28:23;;;;;;;13.90;10.63;;;;;;;;;;5133939;28;20255;-63
2023/01/24 07:30:50;;;;;;;14.85;11.07;;;;;;;;;;5134091;28;20206;-63
2023/01/24 07:33:17;;;;;;;19.85;11.60;;;;;;;;;;5134330;28;20191;-63
2023/01/24 07:35:45;;;;;;;16.75;11.50;;;;;;;;;;5134553;28;20193;-63
2023/01/24 07:38:12;;;;;;;12.38;10.00;;;;;;;;;;5134247;28;20218;-63
2023/01/24 07:40:41;;;;;;;13.85;10.00;;;;;;;;;;5134009;28;20195;-63
2023/01/24 07:43:09;;;;;;;13.55;10.65;;;;;;;;;;5133952;28;20190;-64
2023/01/24 07:45:37;;;;;;;18.10;12.07;;;;;;;;;;5134471;28;20191;-62
2023/01/24 07:48:05;;;;;;;14.93;10.80;;;;;;;;;;5133893;28;20199;-63
2023/01/24 07:50:32;;;;;;;18.48;10.15;;;;;;;;;;5133923;28;20195;-63
2023/01/24 07:53:00;;;;;;;12.57;10.05;;;;;;;;;;5134193;28;20198;-65
2023/01/24 07:55:27;;;;;;;15.68;10.60;;;;;;;;;;5134111;28;20225;-63
2023/01/24 07:58:00;;;;;;;13.98;10.35;;;;;;;;;;5134392;28;20245;-64
2023/01/24 08:00:27;;;;;;;14.75;10.70;;;;;;;;;;5134199;28;20350;-64
2023/01/24 08:02:54;;;;;;;13.90;10.57;;;;;;;;;;5134247;28;20545;-64
2023/01/24 08:05:21;;;;;;;13.07;11.55;;;;;;;;;;5134068;28;20192;-64
2023/01/24 08:07:49;;;;;;;17.33;10.40;;;;;;;;;;5134919;28;20558;-65
2023/01/24 08:10:16;;;;;;;14.25;10.63;;;;;;;;;;5134446;28;20198;-65
2023/01/24 08:12:43;;;;;;;16.73;12.75;;;;;;;;;;5134089;28;20657;-65
2023/01/24 08:15:12;;;;;;;18.25;12.63;;;;;;;;;;5133956;28;20214;-65
2023/01/24 08:17:39;;;;;;;14.85;11.38;;;;;;;;;;5134379;28;20223;-64
2023/01/24 08:20:07;;;;;;;15.20;10.80;;;;;;;;;;5134006;28;20194;-65
2023/01/24 08:22:34;;;;;;;16.90;10.32;;;;;;;;;;5133947;28;20193;-65
2023/01/24 08:25:02;;;;;;;14.80;11.50;;;;;;;;;;5133917;28;20686;-65
2023/01/24 08:27:29;;;;;;;13.98;11.15;;;;;;;;;;5134797;28;20233;-65
2023/01/24 08:29:56;;;;;;;12.50;9.90;;;;;;;;;;5133535;28;20198;-64
2023/01/24 08:32:24;;;;;;;15.60;11.18;;;;;;;;;;5134295;28;20626;-65
2023/01/24 08:34:52;;;;;;;16.17;11.27;;;;;;;;;;5136051;27;20191;-65
2023/01/24 08:37:19;;;;;;;17.65;11.77;;;;;;;;;;5137126;27;20676;-64
2023/01/24 08:39:46;;;;;;;16.70;10.77;;;;;;;;;;5137068;27;20193;-64
2023/01/24 08:42:13;;;;;;;14.35;11.00;;;;;;;;;;5137381;27;20196;-65
2023/01/24 08:44:40;;;;;;;13.93;10.57;;;;;;;;;;5137519;27;20550;-66
2023/01/24 08:47:08;;;;;;;13.25;10.52;;;;;;;;;;5137598;27;20198;-64
2023/01/24 08:49:36;;;;;;;13.93;12.43;;;;;;;;;;5137200;27;20195;-65
2023/01/24 08:52:03;;;;;;;15.70;12.05;;;;;;;;;;5136975;27;20230;-64
2023/01/24 08:54:32;;;;;;;13.68;10.20;;;;;;;;;;5137309;27;20280;-65
2023/01/24 08:56:59;;;;;;;15.80;10.65;;;;;;;;;;5136994;27;20574;-65
2023/01/24 08:59:26;;;;;;;15.50;10.10;;;;;;;;;;5136881;27;20285;-63
2023/01/24 09:01:54;;;;;;;15.80;11.32;;;;;;;;;;5136518;27;20220;-63
2023/01/24 09:04:21;;;;;;;15.30;11.80;;;;;;;;;;5136787;27;20201;-63
2023/01/24 09:06:52;;;;;;;14.63;10.30;;;;;;;;;;5136586;27;20204;-63
2023/01/24 09:09:19;;;;;;;17.60;12.48;;;;;;;;;;5137356;27;20183;-63
2023/01/24 09:11:46;;;;;;;21.83;12.70;;;;;;;;;;5136441;27;20190;-63
2023/01/24 09:14:14;;;;;;;18.63;11.48;;;;;;;;;;5136778;27;20288;-63
2023/01/24 09:16:41;;;;;;;22.60;11.23;;;;;;;;;;5136716;27;20230;-63
2023/01/24 09:19:08;;;;;;;15.60;11.82;;;;;;;;;;5136723;27;20218;-63
2023/01/24 09:21:35;;;;;;;15.23;11.70;;;;;;;;;;5136264;27;20202;-63
2023/01/24 09:24:04;;;;;;;16.23;11.65;;;;;;;;;;5136287;27;20677;-63
2023/01/24 09:26:37;;;;;;;17.58;12.93;;;;;;;;;;5136234;27;20199;-63
2023/01/24 09:29:04;;;;;;;18.40;12.05;;;;;;;;;;5136797;27;20190;-63
2023/01/24 09:31:31;;;;;;;24.98;13.05;;;;;;;;;;5135997;27;20195;-63
2023/01/24 09:33:59;;;;;;;18.27;11.77;;;;;;;;;;5136657;27;20188;-63
2023/01/24 09:36:26;;;;;;;16.60;12.00;;;;;;;;;;5136276;27;20608;-63
2023/01/24 09:38:53;;;;;;;15.48;10.90;;;;;;;;;;5136847;27;20220;-63
2023/01/24 09:41:29;;;;;;;15.35;11.50;;;;;;;;;;5136194;27;20722;-63
2023/01/24 09:43:59;;;;;;;17.52;12.60;;;;;;;;;;5136207;27;20191;-63
2023/01/24 09:46:28;;;;;;;14.77;11.15;;;;;;;;;;5135692;27;20198;-63
2023/01/24 09:49:00;;;;;;;16.85;11.48;;;;;;;;;;5136595;27;20195;-63
2023/01/24 09:51:29;;;;;;;17.55;11.85;;;;;;;;;;5136305;27;20191;-63
2023/01/24 09:53:57;;;;;;;17.40;11.77;;;;;;;;;;5135949;27;20200;-63
2023/01/24 09:56:30;;;;;;;17.52;13.15;;;;;;;;;;5135674;27;20236;-63
2023/01/24 09:59:09;;;;;;;14.52;10.98;;;;;;;;;;5136221;27;20223;-63
2023/01/24 10:01:38;;;;;;;14.25;10.20;;;;;;;;;;5135909;27;20189;-63
2023/01/24 10:04:05;;;;;;;16.88;11.35;;;;;;;;;;5135458;27;20196;-63
2023/01/24 10:06:33;;;;;;;18.40;12.63;;;;;;;;;;5136018;27;20270;-63
2023/01/24 10:09:07;;;;;;;18.95;12.27;;;;;;;;;;5135658;27;20194;-63
2023/01/24 10:11:43;;;;;;;16.38;11.90;;;;;;;;;;5135353;27;20180;-63
2023/01/24 10:14:17;;;;;;;15.63;10.88;;;;;;;;;;5135385;27;20191;-63
2023/01/24 10:16:53;;;;;;;16.92;12.02;;;;;;;;;;5135555;27;20187;-63
2023/01/24 10:19:26;;;;;;;15.13;12.20;;;;;;;;;;5135612;27;20209;-63
2023/01/24 10:22:09;;;;;;;19.52;11.68;;;;;;;;;;5135363;27;20214;-63
2023/01/24 10:24:38;;;;;;;19.15;12.18;;;;;;;;;;5135830;27;20187;-63
2023/01/24 10:27:14;;;;;;;14.50;11.43;;;;;;;;;;5134961;27;20638;-63
2023/01/24 10:29:43;;;;;;;15.02;11.80;;;;;;;;;;5135681;27;20551;-63
2023/01/24 10:32:13;;;;;;;17.25;11.70;;;;;;;;;;5135202;27;20194;-63
2023/01/24 10:34:41;;;;;;;16.45;12.30;;;;;;;;;;5135192;27;20342;-63
2023/01/24 10:37:16;;;;;;;16.10;12.95;;;;;;;;;;5134740;27;20201;-63
2023/01/24 10:39:43;;;;;;;16.00;12.20;;;;;;;;;;5135344;27;20191;-64
2023/01/24 10:42:19;;;;;;;18.48;12.63;;;;;;;;;;5135259;27;20196;-63
2023/01/24 10:44:47;;;;;;;14.30;11.35;;;;;;;;;;5135044;27;20544;-64
2023/01/24 10:47:41;;;;;;;17.52;12.32;;;;;;;;;;5134941;27;20530;-63
2023/01/24 10:50:09;;;;;;;16.02;11.73;;;;;;;;;;5135444;27;20194;-63
2023/01/24 10:52:36;;;;;;;14.25;11.30;;;;;;;;;;5134593;27;20654;-63
2023/01/24 10:55:07;;;;;;;22.30;12.50;;;;;;;;;;5134908;27;20288;-63
2023/01/24 10:57:39;;;;;;;16.73;12.15;;;;;;;;;;5134026;27;20222;-63
2023/01/24 11:00:18;;;;;;;18.52;13.70;;;;;;;;;;5134806;27;20192;-63
2023/01/24 11:02:47;;;;;;;18.23;13.77;;;;;;;;;;5134749;27;20188;-63
2023/01/24 11:05:15;;;;;;;16.20;11.45;;;;;;;;;;5134492;27;20209;-63
2023/01/24 11:07:46;;;;;;;19.92;12.57;;;;;;;;;;5134349;27;20206;-63
2023/01/24 11:10:20;;;;;;;15.13;12.02;;;;;;;;;;5135148;27;20189;-63
2023/01/24 11:12:55;;;;;;;14.98;11.77;;;;;;;;;;5134581;27;20186;-64
2023/01/24 11:15:24;;;;;;;19.58;13.43;;;;;;;;;;5134785;27;20191;-63
2023/01/24 11:17:56;;;;;;;15.63;12.00;;;;;;;;;;5134118;27;20216;-64
2023/01/24 11:20:27;;;;;;;17.17;11.15;;;;;;;;;;5134265;27;20192;-63
2023/01/24 11:23:02;;;;;;;21.60;13.13;;;;;;;;;;5134396;28;20194;-63
2023/01/24 11:25:29;;;;;;;15.90;12.18;;;;;;;;;;5134883;28;20188;-63
2023/01/24 11:27:59;;;;;;;15.30;11.35;;;;;;;;;;5134680;28;20552;-64
2023/01/24 11:30:28;;;;;;;15.35;10.98;;;;;;;;;;5134214;28;20178;-63
2023/01/24 11:33:03;;;;;;;13.68;10.55;;;;;;;;;;5134354;28;20264;-63
2023/01/24 11:35:35;;;;;;;14.25;11.35;;;;;;;;;;5134458;28;20189;-63
2023/01/24 11:38:11;;;;;;;14.98;10.80;;;;;;;;;;5134268;28;20206;-63
2023/01/24 11:40:43;;;;;;;14.00;10.50;;;;;;;;;;5135157;28;20185;-64
2023/01/24 11:43:24;;;;;;;16.40;12.20;;;;;;;;;;5134256;28;20215;-63
2023/01/24 11:45:59;;;;;;;16.48;11.43;;;;;;;;;;5134588;28;20188;-64
2023/01/24 11:48:28;;;;;;;13.88;10.93;;;;;;;;;;5134552;28;20203;-63
2023/01/24 11:50:59;;;;;;;14.23;11.25;;;;;;;;;;5134228;28;20200;-63
2023/01/24 11:53:31;;;;;;;14.32;10.85;;;;;;;;;;5134345;28;20184;-63
2023/01/24 11:56:06;;;;;;;19.92;11.77;;;;;;;;;;5134179;28;20552;-63
2023/01/24 11:58:41;;;;;;;14.73;11.25;;;;;;;;;;5133850;28;20314;-63
2023/01/24 12:01:12;;;;;;;17.58;12.43;;;;;;;;;;5133835;28;20710;-64
2023/01/24 12:04:03;;;;;;;12.50;9.90;;;;;;;;;;5134350;28;20205;-63
2023/01/24 12:06:34;;;;;;;14.30;10.10;;;;;;;;;;5109269;28;20235;-63
2023/01/24 12:09:08;;;;;;;14.05;10.80;;;;;;;;;;5137185;27;20193;-63
2023/01/24 12:11:39;;;;;;;12.88;10.27;;;;;;;;;;5138661;27;20300;-63
2023/01/24 12:14:24;;;;;;;16.00;11.40;;;;;;;;;;5137721;27;20273;-65
2023/01/24 12:16:58;;;;;;;14.65;11.52;;;;;;;;;;5086948;27;20198;-63
2023/01/24 12:19:46;;;;;;;14.00;10.60;;;;;;;;;;5137918;27;20211;-64
2023/01/24 12:22:16;;;;;;;14.48;10.63;;;;;;;;;;5137730;27;20186;-63
2023/01/24 12:24:43;;;;;;;11.20;9.50;;;;;;;;;;5138592;27;20198;-63
2023/01/24 12:27:16;;;;;;;15.45;10.32;;;;;;;;;;5137194;27;20205;-62
2023/01/24 12:29:45;;;;;;;12.43;9.93;;;;;;;;;;5137786;27;20188;-62
2023/01/24 12:32:19;;;;;;;14.93;10.93;;;;;;;;;;5137242;27;20197;-62
2023/01/24 12:34:50;;;;;;;14.57;8.68;;;;;;;;;;5137539;27;20199;-65
2023/01/24 12:37:24;;;;;;;14.48;9.75;;;;;;;;;;5137467;27;20183;-63
2023/01/24 12:39:54;;;;;;;12.77;9.85;;;;;;;;;;5137743;27;20319;-62
2023/01/24 12:42:25;;;;;;;11.20;9.20;;;;;;;;;;5137970;27;20237;-63
2023/01/24 12:44:56;;;;;;;13.23;9.32;;;;;;;;;;5137066;27;20636;-62
2023/01/24 12:47:33;;;;;;;14.15;9.32;;;;;;;;;;5136916;27;20187;-62
2023/01/24 12:50:05;;;;;;;11.93;9.90;;;;;;;;;;5137249;27;20198;-63
2023/01/24 12:52:36;;;;;;;14.50;9.93;;;;;;;;;;5137552;27;20190;-62
2023/01/24 12:55:10;;;;;;;13.70;9.82;;;;;;;;;;5137122;27;20671;-62
2023/01/24 12:57:41;;;;;;;13.55;10.07;;;;;;;;;;5136718;27;20233;-63
2023/01/24 13:00:16;;;;;;;16.00;11.32;;;;;;;;;;5137000;27;20213;-63
2023/01/24 13:02:51;;;;;;;11.77;10.50;;;;;;;;;;5136697;27;20227;-63
2023/01/24 13:05:33;;;;;;;14.35;10.60;;;;;;;;;;5137350;27;20188;-62
2023/01/24 13:08:07;;;;;;;14.18;9.75;;;;;;;;;;5137314;27;20187;-63
2023/01/24 13:10:40;;;;;;;13.95;9.43;;;;;;;;;;5137057;27;20205;-64
2023/01/24 13:13:14;;;;;;;14.98;10.68;;;;;;;;;;5137094;27;20198;-62
2023/01/24 13:15:46;;;;;;;14.15;10.07;;;;;;;;;;5136699;27;20188;-63
2023/01/24 13:18:21;;;;;;;13.90;9.52;;;;;;;;;;5136768;27;20209;-62
2023/01/24 13:20:52;;;;;;;12.45;9.30;;;;;;;;;;5135557;27;20183;-62
2023/01/24 13:23:27;;;;;;;13.25;10.30;;;;;;;;;;5136227;27;20179;-62
2023/01/24 13:26:07;;;;;;;15.88;9.70;;;;;;;;;;5136170;27;20219;-62
2023/01/24 13:28:39;;;;;;;16.58;10.77;;;;;;;;;;5136669;27;20208;-62
2023/01/24 13:31:13;;;;;;;11.93;9.18;;;;;;;;;;5136963;27;20189;-62
2023/01/24 13:33:46;;;;;;;12.13;9.27;;;;;;;;;;5136506;27;20276;-62
2023/01/24 13:36:16;;;;;;;12.57;9.45;;;;;;;;;;5136209;27;20183;-62
2023/01/24 13:38:44;;;;;;;14.55;9.10;;;;;;;;;;5136372;27;20233;-62
2023/01/24 13:41:15;;;;;;;10.07;8.90;;;;;;;;;;5135837;27;20677;-62
2023/01/24 13:43:56;;;;;;;12.48;9.65;;;;;;;;;;5135966;27;20181;-62
2023/01/24 13:46:38;;;;;;;12.52;9.05;;;;;;;;;;5135984;27;20656;-64
2023/01/24 13:49:14;;;;;;;10.57;9.43;;;;;;;;;;5135936;27;20208;-63
2023/01/24 13:51:45;;;;;;;11.90;9.65;;;;;;;;;;5135813;27;20212;-70
2023/01/24 13:54:20;;;;;;;11.30;8.65;;;;;;;;;;5135418;27;20193;-64
2023/01/24 13:57:08;;;;;;;12.15;8.95;;;;;;;;;;5135446;27;20242;-63
2023/01/24 13:59:38;;;;;;;13.93;10.02;;;;;;;;;;5135324;27;20220;-63
2023/01/24 14:02:24;;;;;;;10.43;9.27;;;;;;;;;;5136054;27;20194;-63
2023/01/24 14:04:54;;;;;;;12.32;8.27;;;;;;;;;;5135782;27;20184;-63
2023/01/24 14:07:28;;;;;;;12.18;9.48;;;;;;;;;;5135746;27;20201;-64
2023/01/24 14:09:58;;;;;;;14.35;9.88;;;;;;;;;;5115013;28;20208;-64
2023/01/24 14:12:26;;;;;;;11.70;10.05;;;;;;;;;;5114669;28;20216;-64
2023/01/24 14:15:00;;;;;;;10.75;8.88;;;;;;;;;;5114505;28;20194;-64
2023/01/24 14:17:29;;;;;;;16.55;10.85;;;;;;;;;;5114969;28;20278;-63
2023/01/24 14:19:59;;;;;;;11.05;9.20;;;;;;;;;;5114424;28;20230;-64
2023/01/24 14:22:40;;;;;;;11.38;9.25;;;;;;;;;;5123321;27;20275;-64
2023/01/24 14:25:24;;;;;;;18.83;10.55;;;;;;;;;;5134961;27;20186;-64
2023/01/24 14:27:55;;;;;;;15.90;9.27;;;;;;;;;;5134909;27;20209;-64
2023/01/24 14:30:33;;;;;;;13.23;9.65;;;;;;;;;;5135188;27;20200;-64
2023/01/24 14:33:03;;;;;;;14.23;10.48;;;;;;;;;;5135361;27;20187;-64
2023/01/24 14:35:35;;;;;;;15.63;9.70;;;;;;;;;;5134556;27;20242;-65
2023/01/24 14:38:15;;;;;;;12.40;10.00;;;;;;;;;;5134712;27;20216;-64
2023/01/24 14:40:43;;;;;;;13.23;9.20;;;;;;;;;;5134806;27;20714;-64
2023/01/24 14:43:13;;;;;;;12.77;9.80;;;;;;;;;;5134576;27;20197;-64
2023/01/24 14:45:42;;;;;;;14.40;9.30;;;;;;;;;;5134986;27;20656;-64
2023/01/24 14:48:10;;;;;;;11.07;9.02;;;;;;;;;;5134905;27;20198;-64
2023/01/24 14:50:40;;;;;;;12.32;9.70;;;;;;;;;;5134865;27;20195;-64
2023/01/24 14:53:22;;;;;;;13.13;9.63;;;;;;;;;;5134653;27;20219;-64
2023/01/24 14:55:49;;;;;;;12.52;9.15;;;;;;;;;;5134503;27;20187;-65
2023/01/24 14:58:18;;;;;;;11.57;10.38;;;;;;;;;;5135326;27;20545;-65
2023/01/24 15:00:45;;;;;;;11.27;8.73;;;;;;;;;;5134270;27;20239;-64
2023/01/24 15:03:17;;;;;;;18.45;10.75;;;;;;;;;;5134593;27;20243;-64
2023/01/24 15:05:51;;;;;;;16.63;9.70;;;;;;;;;;5134341;27;20187;-66
2023/01/24 15:08:19;;;;;;;12.73;8.90;;;;;;;;;;5135228;27;20183;-64
2023/01/24 15:10:46;;;;;;;14.50;9.73;;;;;;;;;;5134367;27;20223;-64